Time;durP1;ratioP1;P1;durP2;ratioP2;P2;SDS_P1;SDS_P2;PMS_P1;PMS_P2;Temp;Humidity;BMP_temperature;BMP_pressure;BME280_temperature;BME280_humidity;BME280_pressure;Samples;Min_cycle;Max_cycle;Signal;HPM_P1;HPM_P2
2023/06/03 00:00:41;;;;;;;2.95;1.27;;;12.50;62.30;;;;;;6116203;23;20085;-67
2023/06/03 00:03:13;;;;;;;4.35;1.35;;;12.50;62.50;;;;;;6117142;23;20101;-67
2023/06/03 00:05:39;;;;;;;3.55;1.52;;;12.50;62.50;;;;;;6116375;23;20532;-67
2023/06/03 00:08:05;;;;;;;4.55;1.70;;;12.40;62.50;;;;;;6117680;23;20033;-68
2023/06/03 00:10:30;;;;;;;1.65;1.05;;;12.40;62.50;;;;;;6118436;23;20026;-69
2023/06/03 00:12:56;;;;;;;3.45;1.60;;;12.40;62.60;;;;;;6116309;23;20014;-69
2023/06/03 00:15:22;;;;;;;2.15;1.38;;;12.30;62.70;;;;;;6117582;23;20119;-69
2023/06/03 00:17:47;;;;;;;1.45;1.15;;;12.30;62.70;;;;;;6118254;23;20417;-69
2023/06/03 00:20:13;;;;;;;2.58;1.45;;;12.30;62.70;;;;;;6118252;23;20365;-69
2023/06/03 00:22:40;;;;;;;2.55;1.33;;;12.30;62.80;;;;;;6119320;23;20006;-69
2023/06/03 00:25:07;;;;;;;2.13;1.10;;;12.30;62.80;;;;;;6118497;23;20300;-67
2023/06/03 00:27:34;;;;;;;7.10;1.75;;;12.20;62.90;;;;;;6120121;23;20013;-68
2023/06/03 00:30:01;;;;;;;3.15;1.40;;;12.20;63.00;;;;;;6120818;23;20081;-68
2023/06/03 00:32:27;;;;;;;2.28;1.25;;;12.20;63.10;;;;;;6094224;23;20020;-69
2023/06/03 00:34:52;;;;;;;2.58;1.10;;;12.20;63.20;;;;;;6119430;23;20037;-68
2023/06/03 00:37:18;;;;;;;5.22;1.30;;;12.10;63.20;;;;;;6120179;23;20418;-69
2023/06/03 00:39:44;;;;;;;4.28;1.40;;;12.10;63.30;;;;;;6117531;23;20018;-69
2023/06/03 00:42:09;;;;;;;3.30;1.50;;;12.10;63.30;;;;;;6119676;23;20551;-69
2023/06/03 00:44:35;;;;;;;3.63;1.40;;;12.10;63.50;;;;;;6119129;23;20014;-69
2023/06/03 00:47:02;;;;;;;2.47;1.48;;;12.10;63.50;;;;;;6120323;23;20062;-69
2023/06/03 00:49:27;;;;;;;1.67;1.10;;;12.00;63.50;;;;;;6119327;23;20010;-69
2023/06/03 00:51:54;;;;;;;2.58;1.20;;;12.00;64.10;;;;;;6119698;23;20009;-69
2023/06/03 00:54:20;;;;;;;1.75;1.20;;;12.00;63.60;;;;;;6121456;23;20048;-70
2023/06/03 00:56:47;;;;;;;3.03;1.48;;;12.00;63.60;;;;;;6119120;23;20591;-69
2023/06/03 00:59:16;;;;;;;1.70;1.30;;;12.00;63.70;;;;;;6119246;23;20396;-69
2023/06/03 01:01:43;;;;;;;2.15;1.17;;;12.00;63.80;;;;;;6119187;23;20014;-69
2023/06/03 01:04:16;;;;;;;2.92;1.10;;;12.00;63.90;;;;;;6119568;23;20376;-69
2023/06/03 01:07:06;;;;;;;1.92;1.20;;;12.00;63.90;;;;;;6118188;23;20041;-68
2023/06/03 01:09:49;;;;;;;2.22;1.25;;;11.90;63.80;;;;;;6119475;23;20006;-69
2023/06/03 01:12:14;;;;;;;1.90;1.20;;;11.90;63.80;;;;;;6117536;23;20305;-67
2023/06/03 01:15:04;;;;;;;1.92;1.10;;;11.90;63.80;;;;;;6119833;23;20064;-69
2023/06/03 01:17:39;;;;;;;1.85;1.23;;;11.90;64.00;;;;;;6118776;23;20032;-68
2023/06/03 01:20:10;;;;;;;3.40;1.27;;;11.80;63.90;;;;;;6119090;23;20024;-69
2023/06/03 01:22:41;;;;;;;1.65;1.27;;;11.80;64.40;;;;;;6093686;23;20049;-68
2023/06/03 01:25:08;;;;;;;2.75;1.60;;;11.80;64.00;;;;;;6120009;23;20025;-69
2023/06/03 01:27:36;;;;;;;1.52;1.00;;;11.80;64.00;;;;;;6120164;23;20428;-69
2023/06/03 01:30:03;;;;;;;1.20;0.98;;;11.80;63.90;;;;;;6119652;23;20434;-70
2023/06/03 01:32:29;;;;;;;1.95;0.88;;;11.80;64.10;;;;;;6119373;23;20025;-71
2023/06/03 01:34:56;;;;;;;3.35;1.40;;;11.80;64.10;;;;;;6119641;23;20104;-71
2023/06/03 01:37:22;;;;;;;3.15;1.10;;;11.70;64.10;;;;;;6119033;23;20010;-70
2023/06/03 01:39:48;;;;;;;3.55;1.20;;;11.70;64.10;;;;;;6119761;23;20573;-71
2023/06/03 01:42:14;;;;;;;3.65;1.10;;;11.70;64.10;;;;;;6117876;23;20043;-69
2023/06/03 01:44:40;;;;;;;1.63;1.20;;;11.70;64.10;;;;;;6119651;23;20464;-70
2023/06/03 01:47:07;;;;;;;2.92;1.17;;;11.70;64.10;;;;;;6117578;23;20021;-70
2023/06/03 01:49:33;;;;;;;2.58;1.40;;;11.60;64.10;;;;;;6120261;23;20010;-71
2023/06/03 01:51:59;;;;;;;3.00;1.30;;;11.60;64.60;;;;;;6119303;23;20024;-71
2023/06/03 01:54:25;;;;;;;2.55;1.30;;;11.60;64.00;;;;;;6119232;23;20014;-70
2023/06/03 01:56:55;;;;;;;1.83;1.20;;;11.60;64.10;;;;;;6093137;23;20014;-69
2023/06/03 01:59:23;;;;;;;3.78;1.23;;;11.60;64.10;;;;;;6119149;23;20062;-68
2023/06/03 02:01:53;;;;;;;2.55;1.27;;;11.60;64.10;;;;;;6119689;23;20045;-67
2023/06/03 02:04:19;;;;;;;1.83;1.17;;;11.60;64.10;;;;;;6117674;23;20029;-67
2023/06/03 02:06:52;;;;;;;1.85;1.40;;;11.60;64.10;;;;;;6118775;23;20016;-68
2023/06/03 02:09:20;;;;;;;4.18;1.58;;;11.60;64.20;;;;;;6118621;23;20013;-67
2023/06/03 02:11:46;;;;;;;2.35;1.35;;;11.60;64.00;;;;;;6119199;23;20089;-67
2023/06/03 02:14:12;;;;;;;2.42;1.63;;;11.60;64.00;;;;;;6118951;23;20044;-68
2023/06/03 02:16:40;;;;;;;1.17;0.93;;;11.50;63.90;;;;;;6119044;23;20471;-67
2023/06/03 02:19:15;;;;;;;2.22;1.20;;;11.50;64.00;;;;;;6118339;23;20314;-67
2023/06/03 02:21:44;;;;;;;2.28;1.25;;;11.40;63.90;;;;;;6119238;23;20080;-67
2023/06/03 02:24:11;;;;;;;3.58;1.13;;;11.40;63.90;;;;;;6118191;23;20033;-67
2023/06/03 02:26:38;;;;;;;3.08;1.20;;;11.40;63.80;;;;;;6118746;23;20017;-68
2023/06/03 02:29:05;;;;;;;2.33;1.20;;;11.40;63.90;;;;;;6117325;23;20013;-65
2023/06/03 02:31:32;;;;;;;3.08;0.90;;;11.40;63.80;;;;;;6119091;23;20017;-67
2023/06/03 02:33:58;;;;;;;1.48;0.90;;;11.40;63.70;;;;;;6117899;23;20112;-67
2023/06/03 02:36:24;;;;;;;2.58;1.30;;;11.40;63.80;;;;;;6117650;23;20022;-66
2023/06/03 02:38:49;;;;;;;2.22;1.13;;;11.40;63.70;;;;;;6118691;23;20042;-66
2023/06/03 02:41:15;;;;;;;1.45;1.00;;;11.40;64.00;;;;;;6091388;23;20021;-66
2023/06/03 02:43:41;;;;;;;1.42;0.90;;;11.40;63.80;;;;;;6118692;23;20106;-66
2023/06/03 02:46:07;;;;;;;2.08;1.00;;;11.30;63.70;;;;;;6117923;23;20069;-65
2023/06/03 02:48:33;;;;;;;1.85;1.35;;;11.30;63.60;;;;;;6118810;23;20006;-65
2023/06/03 02:50:59;;;;;;;2.45;1.15;;;11.30;63.60;;;;;;6118272;23;20096;-65
2023/06/03 02:53:25;;;;;;;3.92;1.40;;;11.30;63.70;;;;;;6119531;23;20432;-67
2023/06/03 02:55:50;;;;;;;7.22;1.50;;;11.30;63.60;;;;;;6117835;23;20085;-65
2023/06/03 02:58:16;;;;;;;3.97;1.05;;;11.30;63.60;;;;;;6118789;23;20010;-66
2023/06/03 03:00:42;;;;;;;4.30;1.38;;;11.30;63.50;;;;;;6090680;23;20336;-65
2023/06/03 03:03:09;;;;;;;1.77;1.10;;;11.30;63.60;;;;;;6118377;23;20085;-66
2023/06/03 03:05:35;;;;;;;3.42;1.33;;;11.30;63.60;;;;;;6118151;23;20018;-67
2023/06/03 03:08:01;;;;;;;1.65;0.93;;;11.30;63.50;;;;;;6118506;23;20379;-66
2023/06/03 03:10:27;;;;;;;1.77;1.00;;;11.30;63.40;;;;;;6117341;23;20444;-66
2023/06/03 03:12:53;;;;;;;1.13;1.02;;;11.30;63.40;;;;;;6118805;23;20009;-66
2023/06/03 03:15:19;;;;;;;1.63;1.05;;;11.30;63.40;;;;;;6118509;23;20219;-66
2023/06/03 03:17:45;;;;;;;3.53;1.30;;;11.30;63.40;;;;;;6117871;23;20013;-67
2023/06/03 03:20:12;;;;;;;2.22;1.20;;;11.30;63.40;;;;;;6117646;23;20033;-66
2023/06/03 03:22:44;;;;;;;2.50;1.20;;;11.30;63.50;;;;;;6118358;23;20061;-67
2023/06/03 03:25:10;;;;;;;2.40;1.10;;;11.30;63.50;;;;;;6117999;23;20053;-66
2023/06/03 03:27:36;;;;;;;2.40;1.20;;;11.40;63.50;;;;;;6118211;23;20014;-66
2023/06/03 03:30:03;;;;;;;4.25;1.55;;;11.30;63.40;;;;;;6117428;23;20321;-66
2023/06/03 03:32:28;;;;;;;1.50;1.13;;;11.30;63.90;;;;;;6117599;23;20017;-66
2023/06/03 03:35:20;;;;;;;1.80;1.33;;;11.40;63.50;;;;;;6114924;23;20018;-66
2023/06/03 03:37:45;;;;;;;1.50;0.98;;;11.30;63.50;;;;;;6118856;23;20041;-65
2023/06/03 03:40:19;;;;;;;2.25;1.40;;;11.40;63.70;;;;;;6118159;23;20021;-68
2023/06/03 03:42:49;;;;;;;1.95;1.00;;;11.30;63.70;;;;;;6118078;23;20013;-66
2023/06/03 03:45:18;;;;;;;2.20;1.27;;;11.40;63.70;;;;;;6116993;23;20795;-65
2023/06/03 03:47:44;;;;;;;4.90;1.55;;;11.40;63.70;;;;;;6118116;23;20020;-66
2023/06/03 03:50:20;;;;;;;1.85;1.10;;;11.40;63.80;;;;;;6117270;23;20006;-66
2023/06/03 03:52:45;;;;;;;2.00;1.00;;;11.40;63.90;;;;;;6117871;23;20042;-67
2023/06/03 03:55:12;;;;;;;2.40;1.15;;;11.40;63.90;;;;;;6116636;23;20339;-66
2023/06/03 03:57:39;;;;;;;2.10;1.15;;;11.40;63.90;;;;;;6117735;23;20013;-66
2023/06/03 04:00:09;;;;;;;2.75;1.52;;;11.40;64.00;;;;;;6117550;23;20446;-66
2023/06/03 04:02:41;;;;;;;2.67;1.40;;;11.40;64.10;;;;;;6092340;23;20336;-66
2023/06/03 04:05:08;;;;;;;2.80;1.17;;;11.40;64.20;;;;;;6116330;23;20014;-66
2023/06/03 04:07:38;;;;;;;2.72;1.50;;;11.40;64.20;;;;;;6118094;23;20092;-66
2023/06/03 04:10:09;;;;;;;1.85;1.35;;;11.30;64.20;;;;;;6118462;23;20333;-66
2023/06/03 04:12:38;;;;;;;9.45;2.05;;;11.30;64.30;;;;;;6118338;23;20321;-65
2023/06/03 04:15:05;;;;;;;2.13;1.35;;;11.30;64.40;;;;;;6116594;23;20029;-65
2023/06/03 04:17:35;;;;;;;1.45;1.23;;;11.30;64.40;;;;;;6117671;23;20073;-65
2023/06/03 04:20:05;;;;;;;1.13;0.90;;;11.30;64.50;;;;;;6117610;23;20020;-63
2023/06/03 04:22:32;;;;;;;1.45;1.10;;;11.30;64.70;;;;;;6118206;23;20010;-63
2023/06/03 04:25:00;;;;;;;3.50;1.30;;;11.30;64.70;;;;;;6090830;23;20029;-65
2023/06/03 04:27:26;;;;;;;2.45;1.50;;;11.30;64.90;;;;;;6116957;23;20017;-64
2023/06/03 04:29:52;;;;;;;2.05;1.02;;;11.30;65.00;;;;;;6116350;23;20009;-64
2023/06/03 04:32:18;;;;;;;5.47;1.95;;;11.30;65.10;;;;;;6119775;23;20040;-70
2023/06/03 04:34:55;;;;;;;2.50;1.38;;;11.30;65.20;;;;;;6117750;23;20002;-70
2023/06/03 04:37:21;;;;;;;1.98;1.42;;;11.30;65.40;;;;;;6116813;23;20352;-70
2023/06/03 04:39:48;;;;;;;2.97;1.27;;;11.40;65.50;;;;;;6116977;23;20062;-70
2023/06/03 04:42:15;;;;;;;3.35;1.73;;;11.40;65.60;;;;;;6117937;23;20018;-71
2023/06/03 04:44:42;;;;;;;3.20;1.35;;;11.40;65.70;;;;;;6116048;23;20100;-69
2023/06/03 04:47:11;;;;;;;1.80;1.35;;;11.40;65.70;;;;;;6117809;23;20013;-70
2023/06/03 04:49:40;;;;;;;2.50;1.30;;;11.40;65.70;;;;;;6116837;23;20084;-70
2023/06/03 04:52:10;;;;;;;3.00;1.58;;;11.40;65.90;;;;;;6115364;23;20017;-70
2023/06/03 04:54:37;;;;;;;2.55;1.52;;;11.50;66.00;;;;;;6116454;23;20006;-70
2023/06/03 04:57:03;;;;;;;4.88;1.63;;;11.50;66.00;;;;;;6116257;23;20337;-70
2023/06/03 04:59:29;;;;;;;2.70;1.30;;;11.50;65.90;;;;;;6116932;23;20010;-70
2023/06/03 05:01:55;;;;;;;3.28;1.48;;;11.60;66.00;;;;;;6117089;23;20013;-71
2023/06/03 05:04:22;;;;;;;2.22;1.40;;;11.70;66.00;;;;;;6117037;23;20336;-71
2023/06/03 05:06:48;;;;;;;5.90;1.20;;;11.70;66.10;;;;;;6117931;23;20153;-70
2023/06/03 05:09:14;;;;;;;3.30;1.27;;;11.70;66.00;;;;;;6117968;23;20573;-71
2023/06/03 05:11:40;;;;;;;2.67;1.50;;;11.80;66.10;;;;;;6118956;23;20029;-70
2023/06/03 05:14:07;;;;;;;2.22;1.48;;;11.80;66.20;;;;;;6115725;23;20215;-71
2023/06/03 05:16:33;;;;;;;2.70;1.27;;;11.90;66.30;;;;;;6117868;23;20153;-71
2023/06/03 05:18:58;;;;;;;1.63;1.23;;;11.90;66.30;;;;;;6117009;23;20045;-71
2023/06/03 05:21:24;;;;;;;2.45;1.45;;;12.00;66.40;;;;;;6116952;23;20029;-71
2023/06/03 05:23:49;;;;;;;4.88;1.55;;;12.10;66.50;;;;;;6118029;23;20026;-71
2023/06/03 05:26:15;;;;;;;2.88;1.55;;;12.10;66.30;;;;;;6118776;23;20069;-70
2023/06/03 05:28:41;;;;;;;2.97;1.75;;;12.30;66.40;;;;;;6118578;23;20014;-72
2023/06/03 05:31:06;;;;;;;5.00;1.60;;;12.20;66.20;;;;;;6118850;23;20403;-72
2023/06/03 05:33:35;;;;;;;2.55;1.45;;;12.30;66.10;;;;;;6118792;23;20021;-71
2023/06/03 05:36:01;;;;;;;3.80;1.60;;;12.30;66.10;;;;;;6118316;23;20022;-71
2023/06/03 05:38:27;;;;;;;2.72;1.30;;;12.30;66.00;;;;;;6119467;23;20036;-72
2023/06/03 05:40:53;;;;;;;2.80;1.60;;;12.30;65.90;;;;;;6119631;23;20014;-72
2023/06/03 05:43:19;;;;;;;3.88;1.45;;;12.20;65.80;;;;;;6118465;23;20137;-73
2023/06/03 05:45:46;;;;;;;3.20;2.00;;;12.30;65.90;;;;;;6117723;23;20034;-72
2023/06/03 05:48:11;;;;;;;2.20;1.13;;;12.30;66.20;;;;;;6119068;23;20149;-73
2023/06/03 05:50:47;;;;;;;3.35;1.65;;;12.30;66.40;;;;;;6118397;23;20443;-68
2023/06/03 05:53:12;;;;;;;3.20;1.35;;;12.40;66.40;;;;;;6119375;23;20101;-72
2023/06/03 05:55:38;;;;;;;3.92;1.60;;;12.40;66.20;;;;;;6118201;23;20046;-74
2023/06/03 05:58:03;;;;;;;3.85;1.50;;;12.50;66.30;;;;;;6117964;23;20252;-77
2023/06/03 06:00:29;;;;;;;2.63;1.45;;;12.50;66.10;;;;;;6118253;23;20020;-73
2023/06/03 06:02:55;;;;;;;4.03;1.80;;;12.60;66.00;;;;;;6119061;23;20529;-74
2023/06/03 06:05:21;;;;;;;2.67;1.50;;;12.60;66.30;;;;;;6117770;23;20014;-78
2023/06/03 06:07:47;;;;;;;3.72;1.30;;;12.70;66.20;;;;;;6117957;23;20041;-75
2023/06/03 06:10:12;;;;;;;2.78;1.33;;;12.70;66.10;;;;;;6122376;23;20508;-78
2023/06/03 06:12:38;;;;;;;2.42;1.27;;;12.80;66.00;;;;;;6122609;23;20061;-77
2023/06/03 06:15:04;;;;;;;5.30;1.60;;;12.80;66.00;;;;;;6121778;23;20440;-77
2023/06/03 06:17:30;;;;;;;2.72;1.38;;;12.80;66.00;;;;;;6122646;23;20201;-77
2023/06/03 06:19:56;;;;;;;3.45;1.75;;;12.90;66.00;;;;;;6121786;23;20177;-77
2023/06/03 06:22:21;;;;;;;2.88;1.40;;;13.00;66.10;;;;;;6122467;23;20014;-64
2023/06/03 06:24:47;;;;;;;4.10;1.70;;;13.10;66.20;;;;;;6118199;23;20037;-64
2023/06/03 06:27:13;;;;;;;2.20;1.60;;;13.20;66.10;;;;;;6119702;23;20096;-64
2023/06/03 06:29:38;;;;;;;5.18;1.48;;;13.30;65.90;;;;;;6118212;23;20014;-63
2023/06/03 06:32:05;;;;;;;2.83;1.40;;;13.30;65.90;;;;;;6119575;23;20014;-63
2023/06/03 06:34:33;;;;;;;2.88;1.70;;;13.40;65.90;;;;;;6120705;23;20010;-63
2023/06/03 06:36:59;;;;;;;2.50;1.33;;;13.60;65.90;;;;;;6121996;23;20033;-63
2023/06/03 06:39:41;;;;;;;2.42;1.65;;;13.70;65.90;;;;;;6122940;23;20709;-64
2023/06/03 06:42:23;;;;;;;3.90;2.13;;;13.70;65.50;;;;;;6121815;23;20010;-66
2023/06/03 06:44:49;;;;;;;5.85;1.80;;;13.80;65.40;;;;;;6121880;23;20424;-65
2023/06/03 06:47:27;;;;;;;3.65;1.60;;;13.80;65.10;;;;;;6122308;23;20084;-65
2023/06/03 06:49:56;;;;;;;3.17;1.50;;;14.00;65.00;;;;;;6122583;23;20053;-62
2023/06/03 06:52:23;;;;;;;3.30;1.65;;;14.00;64.80;;;;;;6120062;23;20009;-64
2023/06/03 06:54:49;;;;;;;4.32;1.40;;;14.10;64.70;;;;;;6120470;23;20464;-64
2023/06/03 06:57:23;;;;;;;2.70;1.40;;;14.20;64.30;;;;;;6121516;23;20466;-63
2023/06/03 06:59:52;;;;;;;3.67;1.60;;;14.20;64.00;;;;;;6118480;23;20010;-65
2023/06/03 07:02:18;;;;;;;2.35;1.50;;;14.30;63.80;;;;;;6092881;23;20009;-65
2023/06/03 07:04:44;;;;;;;3.53;1.65;;;14.30;63.80;;;;;;6121310;23;20405;-64
2023/06/03 07:07:09;;;;;;;7.78;2.05;;;14.40;63.80;;;;;;6122474;23;20030;-65
2023/06/03 07:09:35;;;;;;;2.63;1.50;;;14.50;63.40;;;;;;6120606;23;20013;-65
2023/06/03 07:12:01;;;;;;;5.22;1.35;;;14.60;63.10;;;;;;6122935;23;20335;-64
2023/06/03 07:14:30;;;;;;;4.85;1.83;;;14.70;63.10;;;;;;6121179;23;20101;-66
2023/06/03 07:16:56;;;;;;;4.40;1.90;;;14.80;62.90;;;;;;6119723;23;20121;-64
2023/06/03 07:19:22;;;;;;;4.25;1.35;;;14.90;63.20;;;;;;6120581;23;20038;-65
2023/06/03 07:21:48;;;;;;;3.22;1.60;;;15.00;63.00;;;;;;6122915;23;20006;-64
2023/06/03 07:24:15;;;;;;;3.15;1.52;;;15.10;62.60;;;;;;6121830;23;20030;-64
2023/06/03 07:26:41;;;;;;;1.92;1.27;;;15.20;62.10;;;;;;6121042;23;20006;-64
2023/06/03 07:29:06;;;;;;;2.45;1.40;;;15.20;61.60;;;;;;6121339;23;20020;-64
2023/06/03 07:31:39;;;;;;;7.00;1.83;;;15.30;61.90;;;;;;6121044;23;20017;-64
2023/06/03 07:34:05;;;;;;;2.17;1.38;;;15.30;61.80;;;;;;6122149;23;20041;-65
2023/06/03 07:36:33;;;;;;;2.70;1.42;;;15.40;61.00;;;;;;6121455;23;20108;-63
2023/06/03 07:39:04;;;;;;;2.22;1.27;;;15.50;60.80;;;;;;6121903;23;20006;-63
2023/06/03 07:41:37;;;;;;;2.47;1.35;;;15.60;61.30;;;;;;6122702;23;20010;-64
2023/06/03 07:44:13;;;;;;;5.50;1.95;;;15.70;61.70;;;;;;6120088;23;20018;-64
2023/06/03 07:46:44;;;;;;;3.10;2.03;;;15.80;60.70;;;;;;6121186;23;20017;-64
2023/06/03 07:49:15;;;;;;;5.57;1.27;;;15.90;60.10;;;;;;6120281;23;20085;-64
2023/06/03 07:51:46;;;;;;;3.97;1.60;;;15.90;59.90;;;;;;6121773;23;20006;-64
2023/06/03 07:54:13;;;;;;;9.77;1.63;;;16.00;59.70;;;;;;6121607;23;20578;-63
2023/06/03 07:56:38;;;;;;;2.90;1.70;;;16.10;59.70;;;;;;6121309;23;20096;-63
2023/06/03 07:59:06;;;;;;;7.05;1.67;;;16.10;59.30;;;;;;6120058;23;20037;-64
2023/06/03 08:01:35;;;;;;;4.20;1.35;;;16.20;59.20;;;;;;6121872;23;20017;-63
2023/06/03 08:04:22;;;;;;;3.80;1.42;;;16.30;58.90;;;;;;6122270;23;20064;-63
2023/06/03 08:06:52;;;;;;;3.03;1.23;;;16.40;58.50;;;;;;6121400;23;20032;-65
2023/06/03 08:09:25;;;;;;;3.20;1.70;;;16.40;58.00;;;;;;6119473;23;20131;-65
2023/06/03 08:11:51;;;;;;;3.25;1.23;;;16.40;57.80;;;;;;6119310;23;20073;-63
2023/06/03 08:14:19;;;;;;;3.13;1.60;;;16.50;58.00;;;;;;6120487;23;20013;-63
2023/06/03 08:16:45;;;;;;;2.65;1.30;;;16.60;57.80;;;;;;6122057;23;20095;-64
2023/06/03 08:19:13;;;;;;;3.58;1.67;;;16.70;57.80;;;;;;6120510;23;20038;-64
2023/06/03 08:21:39;;;;;;;3.40;1.73;;;16.70;57.70;;;;;;6121382;23;20006;-64
2023/06/03 08:24:05;;;;;;;3.05;1.17;;;16.70;57.50;;;;;;6121210;23;20045;-64
2023/06/03 08:26:30;;;;;;;2.78;1.50;;;16.80;57.30;;;;;;6121238;23;20021;-65
2023/06/03 08:28:56;;;;;;;3.90;1.30;;;16.90;57.60;;;;;;6120830;23;20496;-65
2023/06/03 08:31:22;;;;;;;2.72;1.55;;;17.00;57.60;;;;;;6120946;23;20046;-64
2023/06/03 08:33:47;;;;;;;4.47;1.33;;;17.10;57.80;;;;;;6119041;23;20037;-64
2023/06/03 08:36:13;;;;;;;3.17;1.13;;;17.10;57.10;;;;;;6120393;23;20101;-63
2023/06/03 08:38:40;;;;;;;5.90;1.45;;;17.20;56.80;;;;;;6120795;23;20009;-64
2023/06/03 08:41:06;;;;;;;7.78;1.52;;;17.20;57.20;;;;;;6121390;23;20455;-65
2023/06/03 08:43:38;;;;;;;2.42;1.20;;;17.30;57.50;;;;;;6123585;23;20058;-64
2023/06/03 08:46:03;;;;;;;4.82;1.30;;;17.40;57.60;;;;;;6123493;23;20077;-64
2023/06/03 08:48:40;;;;;;;2.40;1.25;;;17.60;56.70;;;;;;6122614;23;20010;-65
2023/06/03 08:51:05;;;;;;;4.10;1.67;;;17.70;56.60;;;;;;6123807;23;20029;-64
2023/06/03 08:53:46;;;;;;;2.72;1.50;;;17.80;56.80;;;;;;6122791;23;20014;-65
2023/06/03 08:56:13;;;;;;;2.88;1.48;;;17.90;56.60;;;;;;6121082;23;20014;-65
2023/06/03 08:58:43;;;;;;;2.60;1.30;;;17.90;56.30;;;;;;6124322;23;20010;-64
2023/06/03 09:01:11;;;;;;;3.00;1.10;;;18.10;56.80;;;;;;6122278;23;20317;-64
2023/06/03 09:03:38;;;;;;;2.00;1.08;;;18.20;55.40;;;;;;6123019;23;20021;-65
2023/06/03 09:06:05;;;;;;;1.92;1.10;;;18.20;55.40;;;;;;6122753;23;20283;-66
2023/06/03 09:08:31;;;;;;;2.63;1.42;;;18.20;54.30;;;;;;6121747;23;20033;-65
2023/06/03 09:10:58;;;;;;;2.08;1.30;;;18.30;54.20;;;;;;6122081;23;20012;-64
2023/06/03 09:13:26;;;;;;;2.75;1.10;;;18.30;53.60;;;;;;6121154;23;20014;-64
2023/06/03 09:15:52;;;;;;;3.70;1.10;;;18.30;52.90;;;;;;6120573;23;20021;-65
2023/06/03 09:18:18;;;;;;;4.60;1.13;;;18.20;53.00;;;;;;6123264;23;20006;-65
2023/06/03 09:20:44;;;;;;;3.05;1.00;;;18.20;52.50;;;;;;6123848;23;20092;-65
2023/06/03 09:23:12;;;;;;;7.70;1.60;;;18.20;52.70;;;;;;6096381;23;20142;-65
2023/06/03 09:25:38;;;;;;;3.60;1.30;;;18.30;53.40;;;;;;6120449;23;20104;-64
2023/06/03 09:28:04;;;;;;;2.28;1.10;;;18.40;53.80;;;;;;6123680;23;20041;-64
2023/06/03 09:30:33;;;;;;;5.18;1.17;;;18.50;53.10;;;;;;6123688;23;20358;-64
2023/06/03 09:32:59;;;;;;;1.50;0.80;;;18.60;52.30;;;;;;6122952;23;20085;-65
2023/06/03 09:35:25;;;;;;;3.17;1.40;;;18.50;51.70;;;;;;6097116;23;20057;-64
2023/06/03 09:38:04;;;;;;;3.53;1.00;;;18.50;51.60;;;;;;6124012;23;20500;-65
2023/06/03 09:40:31;;;;;;;6.72;1.20;;;18.60;51.30;;;;;;6122719;23;20116;-65
2023/06/03 09:42:58;;;;;;;1.40;0.90;;;18.50;51.20;;;;;;6122316;23;20432;-64
2023/06/03 09:45:31;;;;;;;3.65;2.00;;;18.50;51.30;;;;;;6121216;23;20120;-64
2023/06/03 09:48:01;;;;;;;3.17;1.13;;;18.60;51.50;;;;;;6123285;23;20025;-64
2023/06/03 09:50:31;;;;;;;2.17;1.17;;;18.70;51.40;;;;;;6123152;23;20110;-65
2023/06/03 09:52:58;;;;;;;2.38;1.05;;;18.70;51.80;;;;;;6122420;23;20010;-64
2023/06/03 09:55:33;;;;;;;4.47;1.00;;;18.80;51.80;;;;;;6122842;23;20052;-66
2023/06/03 09:58:03;;;;;;;7.45;1.70;;;18.90;51.00;;;;;;6123738;23;20009;-64
2023/06/03 10:00:31;;;;;;;2.20;1.02;;;19.00;51.20;;;;;;6120010;23;20020;-64
2023/06/03 10:03:09;;;;;;;3.55;1.20;;;19.10;50.90;;;;;;6123648;23;20494;-65
2023/06/03 10:05:35;;;;;;;4.03;1.02;;;19.20;50.30;;;;;;6122639;23;20454;-64
2023/06/03 10:08:03;;;;;;;3.85;1.42;;;19.20;51.10;;;;;;6122044;23;20074;-63
2023/06/03 10:10:30;;;;;;;5.55;1.30;;;19.30;52.00;;;;;;6121228;23;20021;-64
2023/06/03 10:12:56;;;;;;;3.10;1.15;;;19.40;51.80;;;;;;6123555;23;20069;-64
2023/06/03 10:15:33;;;;;;;1.80;1.00;;;19.50;52.10;;;;;;6122293;23;20025;-64
2023/06/03 10:17:58;;;;;;;3.38;1.13;;;19.60;51.60;;;;;;6096654;23;20017;-64
2023/06/03 10:20:34;;;;;;;3.20;1.30;;;19.60;50.90;;;;;;6121823;23;20009;-64
2023/06/03 10:23:02;;;;;;;2.83;1.30;;;19.70;50.50;;;;;;6123187;23;20014;-64
2023/06/03 10:25:40;;;;;;;2.95;1.17;;;19.70;50.30;;;;;;6121831;23;20089;-64
2023/06/03 10:28:05;;;;;;;3.38;0.98;;;19.70;51.30;;;;;;6121822;23;20538;-64
2023/06/03 10:30:31;;;;;;;3.95;1.13;;;19.80;50.90;;;;;;6122585;23;20017;-63
2023/06/03 10:33:04;;;;;;;2.22;1.23;;;19.90;50.80;;;;;;6120344;23;20442;-63
2023/06/03 10:35:34;;;;;;;1.90;1.02;;;19.90;50.80;;;;;;6121801;23;20040;-63
2023/06/03 10:38:01;;;;;;;2.30;1.25;;;20.00;50.40;;;;;;6122832;23;20428;-64
2023/06/03 10:40:28;;;;;;;3.50;1.20;;;20.10;51.00;;;;;;6122071;23;20006;-64
2023/06/03 10:42:55;;;;;;;3.08;1.17;;;20.10;50.90;;;;;;6123106;23;20435;-64
2023/06/03 10:45:21;;;;;;;6.95;1.20;;;20.20;49.90;;;;;;6096607;23;20021;-63
2023/06/03 10:47:50;;;;;;;2.65;1.20;;;20.20;49.20;;;;;;6123662;23;20014;-64
2023/06/03 10:50:47;;;;;;;5.85;1.50;;;20.20;49.60;;;;;;6121387;23;20077;-63
2023/06/03 10:53:16;;;;;;;1.05;0.80;;;20.20;49.20;;;;;;6122440;23;20385;-64
2023/06/03 10:56:23;;;;;;;4.03;1.45;;;20.10;48.40;;;;;;6121963;23;20535;-64
2023/06/03 10:59:03;;;;;;;4.18;1.40;;;20.00;48.60;;;;;;6121610;23;20014;-64
2023/06/03 11:01:58;;;;;;;1.98;0.90;;;20.00;49.50;;;;;;6122835;23;20514;-64
2023/06/03 11:04:24;;;;;;;3.72;1.40;;;20.10;49.60;;;;;;6122173;23;20073;-64
2023/06/03 11:06:50;;;;;;;1.85;1.10;;;20.20;49.40;;;;;;6121303;23;20013;-64
2023/06/03 11:09:39;;;;;;;1.85;1.10;;;20.20;49.50;;;;;;6120565;23;20013;-64
2023/06/03 11:12:09;;;;;;;1.15;0.90;;;20.30;49.40;;;;;;6122112;23;20045;-64
2023/06/03 11:14:40;;;;;;;2.03;0.80;;;20.40;49.70;;;;;;6121742;23;20108;-63
2023/06/03 11:17:08;;;;;;;4.30;1.33;;;20.50;49.50;;;;;;6121129;23;20333;-64
2023/06/03 11:19:54;;;;;;;2.38;1.20;;;20.50;49.00;;;;;;6121002;23;20421;-64
2023/06/03 11:22:29;;;;;;;3.05;1.45;;;20.50;49.00;;;;;;6123773;23;20158;-64
2023/06/03 11:24:58;;;;;;;3.22;1.25;;;20.50;48.40;;;;;;6121596;23;20049;-63
2023/06/03 11:27:26;;;;;;;2.13;1.10;;;20.40;47.70;;;;;;6122376;23;20006;-74
2023/06/03 11:29:57;;;;;;;3.60;1.00;;;20.30;48.00;;;;;;6120567;23;20016;-72
2023/06/03 11:32:27;;;;;;;2.05;1.10;;;20.30;47.60;;;;;;6122968;23;20006;-73
2023/06/03 11:34:58;;;;;;;1.73;1.17;;;20.30;48.00;;;;;;6121335;23;20098;-74
2023/06/03 11:37:47;;;;;;;3.35;1.20;;;20.40;47.80;;;;;;6122378;23;20028;-73
2023/06/03 11:40:18;;;;;;;4.30;1.35;;;20.30;48.00;;;;;;6120190;23;20053;-72
2023/06/03 11:42:47;;;;;;;7.28;1.45;;;20.50;47.70;;;;;;6123110;23;20088;-73
2023/06/03 11:45:18;;;;;;;3.92;1.00;;;20.50;48.10;;;;;;6122094;23;20117;-73
2023/06/03 11:47:52;;;;;;;1.48;1.10;;;20.60;47.80;;;;;;6121954;23;20013;-74
2023/06/03 11:50:19;;;;;;;3.53;1.20;;;20.70;47.60;;;;;;6121536;23;20410;-74
2023/06/03 11:52:45;;;;;;;1.92;1.20;;;20.70;47.50;;;;;;6122082;23;20278;-74
2023/06/03 11:55:10;;;;;;;2.60;1.42;;;20.80;47.50;;;;;;6119706;23;20006;-74
2023/06/03 11:57:37;;;;;;;3.67;1.27;;;20.90;47.60;;;;;;6121151;23;20014;-75
2023/06/03 12:00:10;;;;;;;2.80;1.30;;;21.00;47.60;;;;;;6120335;23;20066;-75
2023/06/03 12:02:37;;;;;;;1.35;1.00;;;21.00;48.20;;;;;;6123214;23;20050;-75
2023/06/03 12:05:06;;;;;;;0.70;0.70;;;21.10;47.40;;;;;;6117253;23;20076;-78
2023/06/03 12:07:31;;;;;;;3.50;1.20;;;21.10;47.40;;;;;;6119883;23;20014;-74
2023/06/03 12:09:57;;;;;;;2.70;1.40;;;21.10;46.80;;;;;;6120297;23;20020;-76
2023/06/03 12:12:23;;;;;;;2.75;1.45;;;21.10;46.80;;;;;;6121463;23;20017;-75
2023/06/03 12:14:49;;;;;;;5.50;1.60;;;21.10;46.70;;;;;;6119688;23;20014;-75
2023/06/03 12:17:18;;;;;;;1.63;1.20;;;21.20;46.10;;;;;;6119992;23;20073;-74
2023/06/03 12:19:45;;;;;;;2.13;1.00;;;21.20;46.00;;;;;;6121440;23;20010;-74
2023/06/03 12:22:13;;;;;;;1.65;0.90;;;21.10;45.90;;;;;;6122019;23;20349;-74
2023/06/03 12:24:43;;;;;;;3.90;1.13;;;21.20;46.20;;;;;;6120413;23;20022;-62
2023/06/03 12:27:22;;;;;;;2.90;1.10;;;21.20;45.60;;;;;;6094753;23;20010;-63
2023/06/03 12:29:50;;;;;;;3.70;1.27;;;21.10;44.80;;;;;;6121459;23;20010;-63
2023/06/03 12:32:16;;;;;;;2.58;1.20;;;20.80;44.40;;;;;;6118093;23;20014;-63
2023/06/03 12:34:44;;;;;;;2.17;1.10;;;20.80;44.70;;;;;;6120975;23;20037;-63
2023/06/03 12:37:12;;;;;;;4.82;1.40;;;20.80;45.00;;;;;;6121118;23;20032;-64
2023/06/03 12:39:48;;;;;;;1.63;1.00;;;20.90;44.80;;;;;;6121823;23;20016;-64
2023/06/03 12:42:16;;;;;;;2.17;0.90;;;20.90;45.00;;;;;;6121294;23;20339;-64
2023/06/03 12:44:54;;;;;;;1.95;1.08;;;20.90;45.10;;;;;;6120274;23;20097;-62
2023/06/03 12:47:21;;;;;;;2.28;1.35;;;21.00;45.30;;;;;;6121274;23;20018;-62
2023/06/03 12:50:03;;;;;;;1.33;0.80;;;21.10;45.20;;;;;;6119486;23;20006;-63
2023/06/03 12:52:31;;;;;;;1.77;1.10;;;21.20;45.40;;;;;;6120352;23;20068;-63
2023/06/03 12:54:56;;;;;;;2.25;1.10;;;21.30;45.60;;;;;;6120314;23;20029;-63